Flight Track Log - Related Links

Times and Time Zones

All times are in EDT time to prevent confusion due to time zone crossing. See the NKS216 flight status page for this flight to view local times or setup timezone preferences in your user account.

Time Position Orientation Groundspeed Altitude Reporting Facility
EDT Latitude Longitude Course Direction KTS MPH feet Rate Location/Type
Mon 04:13:06 AM 33.9460 -118.4390 263° West 164 189 700  Level FlightAware ADS-B
Mon 04:13:38 AM 33.9380 -118.4690 252° West 194 223 1,500 1,300 Climbing FlightAware ADS-B
Mon 04:14:06 AM 33.9200 -118.4930 228° Southwest 239 275 2,000 1,393 Climbing FlightAware ADS-B
Mon 04:14:34 AM 33.8950 -118.5210 223° Southwest 282 325 2,800 2,100 Climbing FlightAware ADS-B
Mon 04:14:46 AM 33.8820 -118.5320 215° Southwest 290 334 3,400 4,000 Climbing FlightAware ADS-B
Mon 04:14:58 AM 33.8670 -118.5400 204° Southwest 285 328 4,400 4,286 Climbing FlightAware ADS-B
Mon 04:15:14 AM 33.8460 -118.5410 182° South 283 326 5,400 3,714 Climbing FlightAware ADS-B
Mon 04:15:40 AM 33.8120 -118.5370 174° South 282 325 7,000 3,158 Climbing FlightAware ADS-B
Mon 04:16:11 AM 33.7700 -118.5310 173° South 295 339 8,400 2,949 Climbing FlightAware ADS-B
Mon 04:16:39 AM 33.7310 -118.5250 173° South 296 341 9,900 2,850 Climbing FlightAware ADS-B
Mon 04:16:51 AM 33.7150 -118.5200 165° South 306 352 10,300 1,500 Climbing FlightAware ADS-B
Mon 04:17:03 AM 33.7000 -118.5090 149° Southeast 322 371 10,500 1,071 Climbing FlightAware ADS-B
Mon 04:17:19 AM 33.6860 -118.4860 126° Southeast 338 389 10,800 1,500 Climbing FlightAware ADS-B
Mon 04:18:03 AM 33.6620 -118.4030 109° East 369 425 12,000 2,071 Climbing FlightAware ADS-B
Mon 04:18:43 AM 33.6440 -118.3230 105° East 378 435 13,700 2,286 Climbing FlightAware ADS-B
Mon 04:19:27 AM 33.6440 -118.2300 90° East 391 450 15,200 2,000 Climbing FlightAware ADS-B
Mon 04:20:07 AM 33.6440 -118.1420 90° East 403 464 16,500 1,829 Climbing FlightAware ADS-B
Mon 04:20:49 AM 33.6430 -118.0470 91° East 417 480 17,700 1,724 Climbing FlightAware ADS-B
Mon 04:21:34 AM 33.6310 -117.9440 98° East 426 490 19,000 1,714 Climbing FlightAware ADS-B
Mon 04:22:13 AM 33.6210 -117.8500 97° East 437 503 20,100 1,747 Climbing FlightAware ADS-B
Mon 04:22:53 AM 33.6110 -117.7520 97° East 443 510 21,300 1,643 Climbing FlightAware ADS-B
Mon 04:23:37 AM 33.5990 -117.6440 98° East 452 520 22,400 1,568 Climbing FlightAware ADS-B
Mon 04:24:21 AM 33.5870 -117.5320 97° East 459 528 23,600 1,465 Climbing FlightAware ADS-B
Mon 04:25:03 AM 33.5760 -117.4270 97° East 468 539 24,500 1,244 Climbing FlightAware ADS-B
Mon 04:25:43 AM 33.5640 -117.3230 98° East 478 550 25,300 1,286 Climbing FlightAware ADS-B
Mon 04:26:27 AM 33.5510 -117.2070 98° East 482 555 26,300 1,357 Climbing FlightAware ADS-B
Mon 04:27:07 AM 33.5390 -117.1010 98° East 488 562 27,200 1,308 Climbing FlightAware ADS-B
Mon 04:27:45 AM 33.5270 -117.0000 98° East 495 570 28,000 1,116 Climbing FlightAware ADS-B
Mon 04:28:33 AM 33.5120 -116.8670 98° East 504 580 28,800 1,000 Climbing FlightAware ADS-B
Mon 04:29:15 AM 33.4990 -116.7510 98° East 512 589 29,500 1,024 Climbing FlightAware ADS-B
Mon 04:29:55 AM 33.4850 -116.6360 98° East 517 595 30,200 1,214 Climbing FlightAware ADS-B
Mon 04:30:39 AM 33.4710 -116.5130 98° East 515 593 31,200 1,482 Climbing FlightAware ADS-B
Mon 04:31:20 AM 33.4570 -116.3990 98° East 508 585 32,300 1,357 Climbing FlightAware ADS-B
Mon 04:32:03 AM 33.4440 -116.2920 98° East 507 583 33,100 1,050 Climbing FlightAware ADS-B
Mon 04:32:40 AM 33.4300 -116.1740 98° East 513 590 33,700 1,229 Climbing FlightAware ADS-B
Mon 04:33:26 AM 33.4150 -116.0470 98° East 507 583 34,800 1,159 Climbing FlightAware ADS-B
Mon 04:34:08 AM 33.4000 -115.9290 99° East 508 585 35,400 837 Climbing FlightAware ADS-B
Mon 04:34:52 AM 33.3850 -115.8080 98° East 510 587 36,000 857 Climbing FlightAware ADS-B
Mon 04:35:32 AM 33.3710 -115.6970 99° East 508 585 36,600 750 Climbing FlightAware ADS-B
Mon 04:36:12 AM 33.3580 -115.5880 98° East 509 586 37,000 304 Climbing FlightAware ADS-B
Mon 04:36:51 AM 33.3440 -115.4800 99° East 506 582 37,000  Level FlightAware ADS-B
Mon 04:37:38 AM 33.3270 -115.3480 99° East 505 581 37,000  Level FlightAware ADS-B
Mon 04:38:18 AM 33.3130 -115.2390 99° East 504 580 37,000  Level FlightAware ADS-B
Mon 04:38:56 AM 33.3000 -115.1330 98° East 504 580 37,000  Level FlightAware ADS-B
Mon 04:39:36 AM 33.2890 -115.0390 98° East 504 580 37,000  Level FlightAware ADS-B
Mon 04:44:24 AM 33.1800 -114.2370 99° East 501 577 37,000  Level FlightAware ADS-B
Mon 04:45:05 AM 33.1650 -114.1270 99° East 500 575 37,000  Level FlightAware ADS-B
Mon 04:45:49 AM 33.1490 -114.0110 99° East 500 575 37,000  Level FlightAware ADS-B
Mon 04:46:30 AM 33.1350 -113.9120 100° East 500 575 37,000  Level FlightAware ADS-B
Mon 04:47:06 AM 33.1240 -113.8280 99° East 500 575 37,000  Level FlightAware ADS-B
Mon 04:47:55 AM 33.1090 -113.7150 99° East 500 575 37,000  Level FlightAware ADS-B
Mon 04:48:48 AM 33.0900 -113.5950 101° East 501 577 37,000  Level FlightAware ADS-B
Mon 04:49:33 AM 33.0630 -113.4030 99° East 498 573 37,000  Level FlightAware ADS-B
Mon 04:50:15 AM 33.0460 -113.2860 100° East 496 571 37,000  Level FlightAware ADS-B
Mon 04:50:57 AM 33.0290 -113.1720 100° East 495 570 37,000  Level FlightAware ADS-B
Mon 04:51:39 AM 33.0130 -113.0610 100° East 495 570 37,000  Level FlightAware ADS-B
Mon 04:52:19 AM 32.9970 -112.9530 100° East 493 567 37,000  Level FlightAware ADS-B
Mon 04:53:03 AM 32.9790 -112.8350 100° East 491 565 37,000  Level FlightAware ADS-B
Mon 04:53:43 AM 32.9630 -112.7310 100° East 491 565 37,000  Level FlightAware ADS-B
Mon 04:54:28 AM 32.9450 -112.6100 100° East 491 565 37,000  Level FlightAware ADS-B
Mon 04:55:09 AM 32.9280 -112.5010 100° East 491 565 37,000  Level FlightAware ADS-B
Mon 04:55:49 AM 32.9120 -112.3940 100° East 490 564 37,000  Level FlightAware ADS-B
Mon 04:56:31 AM 32.8950 -112.2840 100° East 491 565 37,000  Level FlightAware ADS-B
Mon 04:57:17 AM 32.8760 -112.1590 100° East 493 567 37,000  Level FlightAware ADS-B
Mon 04:57:57 AM 32.8600 -112.0540 100° East 494 568 37,000  Level FlightAware ADS-B
Mon 04:58:39 AM 32.8420 -111.9420 101° East 494 568 37,000  Level FlightAware ADS-B
Mon 04:59:22 AM 32.8240 -111.8280 101° East 494 568 37,000  Level FlightAware ADS-B
Mon 05:00:03 AM 32.8070 -111.7190 100° East 494 568 37,000  Level FlightAware ADS-B
Mon 05:00:47 AM 32.7890 -111.6020 100° East 494 568 37,000  Level FlightAware ADS-B
Mon 05:01:27 AM 32.7710 -111.4950 101° East 494 568 37,000  Level FlightAware ADS-B
Mon 05:02:07 AM 32.7540 -111.3880 101° East 494 568 37,000  Level FlightAware ADS-B
Mon 05:02:53 AM 32.7340 -111.2660 101° East 495 570 37,000  Level FlightAware ADS-B
Mon 05:03:33 AM 32.7170 -111.1600 101° East 495 570 37,000  Level FlightAware ADS-B
Mon 05:04:15 AM 32.6980 -111.0470 101° East 495 570 37,000  Level FlightAware ADS-B
Mon 05:04:57 AM 32.6840 -110.9620 101° East 495 570 37,000  Level FlightAware ADS-B
Mon 05:05:40 AM 32.6610 -110.8220 101° East 496 571 37,000  Level FlightAware ADS-B
Mon 05:06:22 AM 32.6420 -110.7080 101° East 495 570 37,000  Level FlightAware ADS-B
Mon 05:07:02 AM 32.6240 -110.6030 101° East 494 568 37,000  Level FlightAware ADS-B
Mon 05:07:46 AM 32.6040 -110.4850 101° East 494 568 37,000  Level FlightAware ADS-B
Mon 05:08:28 AM 32.5860 -110.3750 101° East 493 567 37,000  Level FlightAware ADS-B
Mon 05:09:10 AM 32.5670 -110.2630 101° East 494 568 37,000  Level FlightAware ADS-B
Mon 05:09:48 AM 32.5490 -110.1620 102° East 495 570 37,000  Level FlightAware ADS-B
Mon 05:10:32 AM 32.5300 -110.0470 101° East 494 568 37,000  Level FlightAware ADS-B
Mon 05:11:30 AM 32.5040 -109.9030 102° East 494 568 37,000  Level FlightAware ADS-B
Mon 05:12:10 AM 32.4840 -109.7890 102° East 493 567 37,000  Level FlightAware ADS-B
Mon 05:12:54 AM 32.4640 -109.6710 101° East 492 566 37,000  Level FlightAware ADS-B
Mon 05:13:32 AM 32.4480 -109.5810 102° East 492 566 37,000  Level FlightAware ADS-B
Mon 05:14:18 AM 32.4250 -109.4520 102° East 491 565 37,000  Level FlightAware ADS-B
Mon 05:14:56 AM 32.4070 -109.3520 102° East 491 565 37,000  Level FlightAware ADS-B
Mon 05:15:40 AM 32.3860 -109.2350 102° East 491 565 37,000  Level FlightAware ADS-B
Mon 05:16:21 AM 32.3670 -109.1280 102° East 491 565 37,000  Level FlightAware ADS-B
Mon 05:17:05 AM 32.3450 -109.0110 103° East 490 564 37,000  Level FlightAware ADS-B
Mon 05:17:45 AM 32.3260 -108.9080 102° East 490 564 37,000  Level FlightAware ADS-B
Mon 05:18:23 AM 32.3080 -108.8080 102° East 488 562 37,000  Level FlightAware ADS-B
Mon 05:19:06 AM 32.2880 -108.6980 102° East 487 560 37,000  Level FlightAware ADS-B
Mon 05:19:51 AM 32.2660 -108.5800 102° East 487 560 37,000  Level FlightAware ADS-B
Mon 05:20:31 AM 32.2470 -108.4780 102° East 487 560 37,000  Level FlightAware ADS-B
Mon 05:21:17 AM 32.2240 -108.3560 103° East 488 562 37,000  Level FlightAware ADS-B
Mon 05:21:57 AM 32.2050 -108.2520 102° East 488 562 37,000  Level FlightAware ADS-B
Mon 05:22:39 AM 32.1840 -108.1440 103° East 488 562 37,000  Level FlightAware ADS-B
Mon 05:23:25 AM 32.1660 -108.0430 102° East 487 560 37,000  Level FlightAware ADS-B
Mon 05:24:01 AM 32.1530 -107.9630 101° East 487 560 37,000  Level FlightAware ADS-B
Mon 05:24:50 AM 32.1350 -107.8540 101° East 487 560 37,000  Level FlightAware ADS-B
Mon 05:25:27 AM 32.1220 -107.7720 101° East 487 560 37,000  Level FlightAware ADS-B
Mon 05:26:04 AM 32.1080 -107.6900 101° East 487 560 37,000  Level FlightAware ADS-B
Mon 05:26:52 AM 32.0910 -107.5840 101° East 487 560 37,000  Level FlightAware ADS-B
Mon 05:27:28 AM 32.0780 -107.5040 101° East 487 560 37,000  Level FlightAware ADS-B
Mon 05:28:15 AM 32.0600 -107.3990 101° East 487 560 37,000  Level FlightAware ADS-B
Mon 05:28:55 AM 31.9950 -107.1710 109° East 491 565 37,000  Level FlightAware ADS-B
Mon 05:29:40 AM 31.9720 -107.0530 103° East 490 564 37,000  Level FlightAware ADS-B
Mon 05:30:15 AM 31.9550 -106.9680 103° East 489 563 37,000  Level FlightAware ADS-B
Mon 05:31:01 AM 31.9310 -106.8480 103° East 489 563 37,000  Level FlightAware ADS-B
Mon 05:31:45 AM 31.9070 -106.7300 103° East 489 563 37,000  Level FlightAware ADS-B
Mon 05:32:25 AM 31.8870 -106.6280 103° East 489 563 37,000  Level FlightAware ADS-B
Mon 05:33:14 AM 31.8620 -106.5060 104° East 489 563 37,000  Level FlightAware ADS-B
Mon 05:33:49 AM 31.8420 -106.4120 104° East 489 563 37,000  Level FlightAware ADS-B
Mon 05:34:35 AM 31.8180 -106.2910 103° East 490 564 37,000  Level FlightAware ADS-B
Mon 05:35:11 AM 31.8060 -106.1980 99° East 493 567 37,000  Level FlightAware ADS-B
Mon 05:35:52 AM 31.7940 -106.0950 98° East 495 570 37,000  Level FlightAware ADS-B
Mon 05:36:31 AM 31.7810 -105.9850 98° East 496 571 37,000  Level FlightAware ADS-B
Mon 05:37:11 AM 31.7680 -105.8800 98° East 496 571 37,000  Level FlightAware ADS-B
Mon 05:37:47 AM 31.7570 -105.7890 98° East 495 570 37,000  Level FlightAware ADS-B
Mon 05:38:49 AM 31.7400 -105.6480 98° East 495 570 37,000  Level FlightAware ADS-B
Mon 05:39:25 AM 31.7310 -105.5670 97° East 495 570 37,000  Level FlightAware ADS-B
Mon 05:40:14 AM 31.7170 -105.4560 98° East 495 570 37,000  Level FlightAware ADS-B
Mon 05:40:51 AM 31.7070 -105.3720 98° East 495 570 37,000  Level FlightAware ADS-B
Mon 05:41:39 AM 31.6940 -105.2630 98° East 495 570 37,000  Level FlightAware ADS-B
Mon 05:42:18 AM 31.6670 -105.0630 99° East 493 567 37,000  Level FlightAware ADS-B
Mon 05:42:58 AM 31.6540 -104.9600 98° East 492 566 37,000  Level FlightAware ADS-B
Mon 05:43:36 AM 31.6440 -104.8750 98° East 492 566 37,000  Level FlightAware ADS-B
Mon 05:44:40 AM 31.6200 -104.6920 99° East 490 564 37,000  Level FlightAware ADS-B
Mon 05:45:22 AM 31.6050 -104.5800 99° East 489 563 37,000  Level FlightAware ADS-B
Mon 05:46:02 AM 31.5910 -104.4750 99° East 488 562 37,000  Level FlightAware ADS-B
Mon 05:46:44 AM 31.5770 -104.3670 99° East 488 562 37,000  Level FlightAware ADS-B
Mon 05:47:24 AM 31.5630 -104.2640 99° East 489 563 37,000  Level FlightAware ADS-B
Mon 05:48:03 AM 31.5530 -104.1770 98° East 489 563 37,000  Level FlightAware ADS-B
Mon 05:48:52 AM 31.5400 -104.0680 98° East 489 563 37,000  Level FlightAware ADS-B
Mon 05:49:28 AM 31.5300 -103.9870 98° East 489 563 37,000  Level FlightAware ADS-B
Mon 05:50:16 AM 31.5170 -103.8800 98° East 489 563 37,000  Level FlightAware ADS-B
Mon 05:50:52 AM 31.5070 -103.8000 98° East 489 563 37,000  Level FlightAware ADS-B
Mon 05:51:40 AM 31.4950 -103.6930 97° East 489 563 37,000  Level FlightAware ADS-B
Mon 05:52:17 AM 31.4850 -103.6100 98° East 489 563 37,000  Level FlightAware ADS-B
Mon 05:53:05 AM 31.4720 -103.5030 98° East 489 563 37,000  Level FlightAware ADS-B
Mon 05:53:41 AM 31.4620 -103.4220 98° East 489 563 37,000  Level FlightAware ADS-B
Mon 05:54:18 AM 31.4520 -103.3400 98° East 489 563 37,000  Level FlightAware ADS-B
Mon 05:55:07 AM 31.4390 -103.2300 98° East 489 563 37,000  Level FlightAware ADS-B
Mon 05:55:43 AM 31.4300 -103.1500 97° East 489 563 37,000  Level FlightAware ADS-B
Mon 05:56:32 AM 31.4160 -103.0410 99° East 489 563 37,000  Level FlightAware ADS-B
Mon 05:57:09 AM 31.4060 -102.9580 98° East 489 563 37,000  Level FlightAware ADS-B
Mon 05:57:57 AM 31.3500 -102.6130 101° East 493 567 37,000  Level FlightAware ADS-B
Mon 05:58:40 AM 31.3320 -102.4840 99° East 496 571 37,000  Level FlightAware ADS-B
Mon 05:59:20 AM 31.3190 -102.3790 98° East 495 570 37,000  Level FlightAware ADS-B
Mon 06:00:04 AM 31.3030 -102.2630 99° East 495 570 37,000  Level FlightAware ADS-B
Mon 06:00:45 AM 31.2910 -102.1670 98° East 494 568 37,000  Level FlightAware ADS-B
Mon 06:01:22 AM 31.2760 -102.0560 99° East 493 567 37,000  Level FlightAware ADS-B
Mon 06:02:08 AM 31.2600 -101.9360 99° East 493 567 37,000  Level FlightAware ADS-B
Mon 06:02:50 AM 31.2450 -101.8240 99° East 490 564 37,000  Level FlightAware ADS-B
Mon 06:03:30 AM 31.2310 -101.7210 99° East 489 563 37,000  Level FlightAware ADS-B
Mon 06:04:14 AM 31.2150 -101.6050 99° East 490 564 37,000  Level FlightAware ADS-B
Mon 06:04:54 AM 31.2010 -101.5030 99° East 489 563 37,000  Level FlightAware ADS-B
Mon 06:05:38 AM 31.1830 -101.3860 100° East 490 564 37,000  Level FlightAware ADS-B
Mon 06:06:18 AM 31.1660 -101.2850 101° East 490 564 37,000  Level FlightAware ADS-B
Mon 06:07:02 AM 31.1460 -101.1720 102° East 489 563 37,000  Level FlightAware ADS-B
Mon 06:07:44 AM 31.1270 -101.0640 102° East 490 564 37,000  Level FlightAware ADS-B
Mon 06:08:26 AM 31.1080 -100.9540 101° East 489 563 37,000  Level FlightAware ADS-B
Mon 06:09:08 AM 31.0890 -100.8450 101° East 490 564 37,000  Level FlightAware ADS-B
Mon 06:09:48 AM 31.0700 -100.7400 102° East 491 565 37,000  Level FlightAware ADS-B
Mon 06:10:33 AM 31.0510 -100.6330 102° East 492 566 37,000  Level FlightAware ADS-B
Mon 06:10:56 AM 31.0390 -100.5640 101° East 493 567 37,000  Level FlightAware ADS-B
Mon 06:11:40 AM 31.0230 -100.4790 102° East 492 566 37,000  Level FlightAware ADS-B
Mon 06:12:22 AM 30.9980 -100.3420 102° East 494 568 37,000  Level FlightAware ADS-B
Mon 06:13:08 AM 30.9760 -100.2220 102° East 492 566 37,000  Level FlightAware ADS-B
Mon 06:13:46 AM 30.9580 -100.1240 102° East 491 565 37,000  Level FlightAware ADS-B
Mon 06:14:30 AM 30.9380 -100.0110 102° East 491 565 37,000  Level FlightAware ADS-B
Mon 06:15:12 AM 30.9180 -99.9020 102° East 490 564 37,000  Level FlightAware ADS-B
Mon 06:15:52 AM 30.8980 -99.7990 103° East 491 565 37,000  Level FlightAware ADS-B
Mon 06:16:36 AM 30.8770 -99.6850 102° East 491 565 37,000  Level FlightAware ADS-B
Mon 06:17:18 AM 30.8570 -99.5780 102° East 491 565 37,000  Level FlightAware ADS-B
Mon 06:17:50 AM 30.8416 -99.4952 102° East 491 565 37,000  Level FlightAware ADS-B
Mon 06:18:44 AM 30.8150 -99.3560 103° East 490 564 37,000  Level FlightAware ADS-B
Mon 06:19:19 AM 30.8000 -99.2770 102° East 490 564 37,000  Level FlightAware ADS-B
Mon 06:20:04 AM 30.7760 -99.1520 103° East 489 563 37,000  Level FlightAware ADS-B
Mon 06:20:22 AM 30.7673 -99.1052 102° East 490 564 37,000  Level FlightAware ADS-B
Mon 06:21:00 AM 30.7485 -99.0072 103° East 488 562 37,000  Level FlightAware ADS-B
Mon 06:21:46 AM 30.7259 -98.8901 103° East 488 562 37,000  Level FlightAware ADS-B
Mon 06:22:28 AM 30.7051 -98.7825 103° East 485 558 37,000  Level FlightAware ADS-B
Mon 06:23:00 AM 30.6894 -98.7025 103° East 483 556 37,000  Level FlightAware ADS-B
Mon 06:23:36 AM 30.6720 -98.6130 103° East 483 556 37,000  Level FlightAware ADS-B
Mon 06:23:53 AM 30.6629 -98.5676 103° East 484 557 37,000 -612 Level FlightAware ADS-B
Mon 06:24:25 AM 30.6471 -98.4877 103° East 485 558 36,500 -968 Descending FlightAware ADS-B
Mon 06:24:55 AM 30.6320 -98.4111 103° East 486 559 36,000 -1,067 Descending FlightAware ADS-B
Mon 06:25:10 AM 30.6245 -98.3732 103° East 487 560 35,700 -968 Descending FlightAware ADS-B
Mon 06:25:26 AM 30.6165 -98.3329 103° East 487 560 35,500 -968 Descending FlightAware ADS-B
Mon 06:25:41 AM 30.6088 -98.2944 103° East 489 563 35,200 -938 Descending FlightAware ADS-B
Mon 06:25:58 AM 30.6001 -98.2509 103° East 490 564 35,000 -894 Descending FlightAware ADS-B
Mon 06:26:28 AM 30.5847 -98.1729 103° East 490 564 34,500 -1,059 Descending FlightAware ADS-B
Mon 06:26:32 AM 30.5827 -98.1626 103° East 490 564 34,400 -1,125 Descending FlightAware ADS-B
Mon 06:27:00 AM 30.5685 -98.0910 103° East 495 570 33,900 -1,000 Descending FlightAware ADS-B
Mon 06:27:32 AM 30.5522 -98.0104 103° East 490 564 33,400 -968 Descending FlightAware ADS-B
Mon 06:28:02 AM 30.5365 -97.9321 103° East 484 557 32,900 -1,000 Descending FlightAware ADS-B
Mon 06:28:08 AM 30.5337 -97.9178 103° East 488 562 32,800 -909 Descending FlightAware ADS-B
Mon 06:28:35 AM 30.5197 -97.8494 103° East 487 560 32,400 -938 Descending FlightAware ADS-B
Mon 06:28:40 AM 30.5171 -97.8370 104° East 488 562 32,300 -1,161 Descending FlightAware ADS-B
Mon 06:29:06 AM 30.5038 -97.7720 103° East 485 558 31,800 -968 Descending FlightAware ADS-B
Mon 06:29:11 AM 30.5012 -97.7593 103° East 484 557 31,800 -800 Level FlightAware ADS-B
Mon 06:29:36 AM 30.4883 -97.6970 103° East 474 545 31,400 -968 Descending FlightAware ADS-B
Mon 06:29:42 AM 30.4853 -97.6824 103° East 473 544 31,300 -1,000 Descending FlightAware ADS-B
Mon 06:30:06 AM 30.4729 -97.6221 103° East 473 544 30,900 -1,000 Descending FlightAware ADS-B
Mon 06:30:12 AM 30.4695 -97.6074 105° East 473 544 30,800 -1,161 Descending FlightAware ADS-B
Mon 06:30:37 AM 30.4549 -97.5469 106° East 478 550 30,300 -1,161 Descending FlightAware ADS-B
Mon 06:30:43 AM 30.4514 -97.5324 106° East 478 550 30,200 -1,000 Descending FlightAware ADS-B
Mon 06:31:07 AM 30.4367 -97.4731 106° East 475 547 29,800 -1,309 Descending FlightAware ADS-B
Mon 06:31:38 AM 30.4185 -97.3982 106° East 471 542 29,000 -1,672 Descending FlightAware ADS-B
Mon 06:32:08 AM 30.4013 -97.3266 106° East 459 528 28,100 -1,900 Descending FlightAware ADS-B
Mon 06:32:38 AM 30.3841 -97.2551 106° East 451 519 27,100 -2,100 Descending FlightAware ADS-B
Mon 06:33:08 AM 30.3671 -97.1853 106° East 447 514 26,000 -2,066 Descending FlightAware ADS-B
Mon 06:33:39 AM 30.3502 -97.1159 106° East 440 506 25,000 -2,164 Descending FlightAware ADS-B
Mon 06:34:09 AM 30.3336 -97.0481 106° East 437 503 23,800 -2,200 Descending FlightAware ADS-B
Mon 06:34:39 AM 30.3170 -96.9804 106° East 432 497 22,800 -1,770 Descending FlightAware ADS-B
Mon 06:35:10 AM 30.3009 -96.9139 106° East 420 483 22,000 -1,672 Descending FlightAware ADS-B
Mon 06:35:40 AM 30.2848 -96.8483 106° East 410 472 21,100 -1,770 Descending FlightAware ADS-B
Mon 06:36:11 AM 30.2691 -96.7855 106° East 402 463 20,200 -1,869 Descending FlightAware ADS-B
Mon 06:36:41 AM 30.2539 -96.7231 106° East 397 457 19,200 -1,869 Descending FlightAware ADS-B
Mon 06:37:12 AM 30.2386 -96.6611 106° East 388 447 18,300 -1,770 Descending FlightAware ADS-B
Mon 06:37:42 AM 30.2240 -96.6012 106° East 378 435 17,400 -1,700 Descending FlightAware ADS-B
Mon 06:38:12 AM 30.2097 -96.5438 106° East 367 422 16,600 -1,800 Descending FlightAware ADS-B
Mon 06:38:42 AM 30.1961 -96.4886 106° East 366 421 15,600 -1,800 Descending FlightAware ADS-B
Mon 06:39:12 AM 30.1821 -96.4328 106° East 356 410 14,800 -1,900 Descending FlightAware ADS-B
Mon 06:39:42 AM 30.1681 -96.3776 106° East 355 409 13,700 -2,000 Descending FlightAware ADS-B
Mon 06:40:09 AM 30.1561 -96.3294 106° East 349 402 12,900 -1,789 Descending FlightAware ADS-B
Mon 06:40:39 AM 30.1429 -96.2765 106° East 342 394 12,000 -1,900 Descending FlightAware ADS-B
Mon 06:41:09 AM 30.1297 -96.2236 106° East 342 394 11,000 -1,900 Descending FlightAware ADS-B
Mon 06:41:39 AM 30.1166 -96.1710 106° East 337 388 10,100 -1,467 Descending FlightAware ADS-B
Mon 06:41:54 AM 30.1100 -96.1448 106° East 340 391 9,900 -400 Descending FlightAware ADS-B
Mon 06:42:09 AM 30.1034 -96.1186 106° East 342 394 9,900  Level FlightAware ADS-B
Mon 06:42:24 AM 30.0967 -96.0922 106° East 341 392 9,900  Level FlightAware ADS-B
Mon 06:42:39 AM 30.0901 -96.0661 106° East 340 391 9,900  Level FlightAware ADS-B
Mon 06:42:55 AM 30.0835 -96.0402 106° East 323 372 9,900 -194 Level FlightAware ADS-B
Mon 06:43:10 AM 30.0775 -96.0158 106° East 311 358 9,800 -600 Descending FlightAware ADS-B
Mon 06:43:25 AM 30.0714 -95.9914 106° East 302 348 9,600 -1,000 Descending FlightAware ADS-B
Mon 06:43:40 AM 30.0655 -95.9683 106° East 299 344 9,300 -1,355 Descending FlightAware ADS-B
Mon 06:43:56 AM 30.0596 -95.9450 106° East 296 341 8,900 -1,448 Descending FlightAware ADS-B
Mon 06:44:09 AM 30.0544 -95.9250 107° East 293 337 8,600 -1,286 Descending FlightAware ADS-B
Mon 06:44:24 AM 30.0486 -95.9022 106° East 290 334 8,300 -1,400 Descending FlightAware ADS-B
Mon 06:44:39 AM 30.0430 -95.8802 106° East 289 333 7,900 -1,355 Descending FlightAware ADS-B
Mon 06:44:55 AM 30.0372 -95.8577 107° East 287 330 7,600 -1,500 Descending FlightAware ADS-B
Mon 06:45:11 AM 30.0311 -95.8335 106° East 285 328 7,100 -1,500 Descending FlightAware ADS-B
Mon 06:45:27 AM 30.0254 -95.8106 106° East 284 327 6,800 -1,241 Descending FlightAware ADS-B
Mon 06:45:40 AM 30.0208 -95.7919 106° East 281 323 6,500 -1,448 Descending FlightAware ADS-B
Mon 06:45:56 AM 30.0150 -95.7690 106° East 279 321 6,100 -1,742 Descending FlightAware ADS-B
Mon 06:46:11 AM 30.0093 -95.7467 106° East 280 322 5,600 -1,548 Descending FlightAware ADS-B
Mon 06:46:27 AM 30.0037 -95.7247 106° East 277 319 5,300 -1,161 Descending FlightAware ADS-B
Mon 06:46:42 AM 29.9980 -95.7032 107° East 274 315 5,000 -1,500 Descending FlightAware ADS-B
Mon 06:46:47 AM 29.9964 -95.6965 105° East 274 315 4,800 -1,800 Descending FlightAware ADS-B
Mon 06:46:52 AM 29.9951 -95.6898 103° East 275 316 4,700 -1,200 Descending FlightAware ADS-B
Mon 06:46:57 AM 29.9941 -95.6825 99° East 275 316 4,600 -1,500 Descending FlightAware ADS-B
Mon 06:47:04 AM 29.9932 -95.6717 95° East 275 316 4,400 -1,385 Descending FlightAware ADS-B
Mon 06:47:10 AM 29.9929 -95.6628 92° East 274 315 4,300 -947 Descending FlightAware ADS-B
Mon 06:47:23 AM 29.9927 -95.6442 91° East 269 310 4,100 -643 Descending FlightAware ADS-B
Mon 06:47:38 AM 29.9928 -95.6232 90° East 259 298 4,000 -400 Descending FlightAware ADS-B
Mon 06:47:53 AM 29.9930 -95.6029 89° East 245 282 3,900 -600 Descending FlightAware ADS-B
Mon 06:48:08 AM 29.9930 -95.5837 90° East 239 275 3,700 -1,000 Descending FlightAware ADS-B
Mon 06:48:23 AM 29.9930 -95.5646 90° East 236 272 3,400 -1,071 Descending FlightAware ADS-B
Mon 06:48:36 AM 29.9931 -95.5492 90° East 233 268 3,200 -960 Descending FlightAware ADS-B
Mon 06:48:48 AM 29.9931 -95.5345 90° East 229 264 3,000 -1,091 Descending FlightAware ADS-B
Mon 06:48:58 AM 29.9932 -95.5225 89° East 226 260 2,800 -1,440 Descending FlightAware ADS-B
Mon 06:49:13 AM 29.9932 -95.5043 90° East 223 257 2,400 -1,355 Descending FlightAware ADS-B
Mon 06:49:29 AM 29.9932 -95.4854 90° East 217 250 2,100 -968 Descending FlightAware ADS-B
Mon 06:49:44 AM 29.9933 -95.4681 90° East 210 242 1,900 -774 Descending FlightAware ADS-B
Mon 06:50:00 AM 29.9933 -95.4517 90° East 197 227 1,700 -1,059 Descending FlightAware ADS-B
Mon 06:50:18 AM 29.9933 -95.4327 90° East 191 220 1,300 -1,059 Descending FlightAware ADS-B
Mon 06:50:34 AM 29.9933 -95.4175 90° East 168 193 1,100 -800 Descending FlightAware ADS-B
Mon 06:50:48 AM 29.9933 -95.4061 90° East 156 180 900 -828 Descending FlightAware ADS-B
Mon 06:51:03 AM 29.9934 -95.3933 89° East 151 174 700 -750 Descending FlightAware ADS-B
Mon 06:51:12 AM 29.9934 -95.3861 90° East 147 169 600 -667 Descending FlightAware ADS-B
Mon 06:51:21 AM 29.9934 -95.3798 90° East 147 169 500 -750 Descending FlightAware ADS-B
Mon 06:51:36 AM 29.9935 -95.3679 89° East 146 168 300 -750 Descending FlightAware ADS-B
Mon 06:51:45 AM 29.9934 -95.3606 91° East 143 165 200 -667 Descending FlightAware ADS-B
Mon 06:59:00 AM 29.9833 -95.3333 103° East  Level FlightAware Approximate
Mon 07:00:00 AM 29.9844 -95.3414 103° East  Level Estimated

Login

Don't have an account? Register now (free) for customized features, flight alerts, and more!